Time;durP1;ratioP1;P1;durP2;ratioP2;P2;SDS_P1;SDS_P2;PMS_P1;PMS_P2;Temp;Humidity;BMP_temperature;BMP_pressure;BME280_temperature;BME280_humidity;BME280_pressure;Samples;Min_cycle;Max_cycle;Signal;HPM_P1;HPM_P2
2022/08/26 00:02:00;;;;;;;32.33;29.10;;;22.60;99.90;;;;;;4934630;29;20054;-63
2022/08/26 00:04:26;;;;;;;32.00;28.15;;;22.50;99.90;;;;;;4933298;29;20095;-63
2022/08/26 00:06:53;;;;;;;32.58;27.38;;;22.50;99.90;;;;;;4933432;29;20060;-64
2022/08/26 00:09:18;;;;;;;30.58;26.95;;;22.50;99.90;;;;;;4934919;29;20164;-64
2022/08/26 00:11:45;;;;;;;29.42;26.33;;;22.40;99.90;;;;;;4933261;29;20051;-64
2022/08/26 00:14:12;;;;;;;30.33;26.38;;;22.40;99.90;;;;;;4934798;29;20083;-64
2022/08/26 00:16:37;;;;;;;28.23;25.17;;;22.40;99.90;;;;;;4934372;29;20063;-64
2022/08/26 00:19:03;;;;;;;28.58;25.20;;;22.30;99.90;;;;;;4933916;29;20043;-64
2022/08/26 00:21:29;;;;;;;32.22;23.83;;;22.20;99.90;;;;;;4934356;29;20047;-64
2022/08/26 00:23:54;;;;;;;28.77;24.15;;;22.30;99.90;;;;;;4917958;29;20043;-64
2022/08/26 00:26:20;;;;;;;30.40;24.58;;;22.20;99.90;;;;;;4934789;29;20054;-64
2022/08/26 00:28:46;;;;;;;27.10;23.15;;;22.20;99.90;;;;;;4934278;29;20044;-63
2022/08/26 00:31:11;;;;;;;27.48;23.48;;;22.20;99.90;;;;;;4934676;29;20055;-64
2022/08/26 00:33:38;;;;;;;26.65;22.10;;;22.20;99.90;;;;;;4934196;29;20047;-64
2022/08/26 00:36:05;;;;;;;27.10;22.42;;;22.20;99.90;;;;;;4934655;29;20063;-63
2022/08/26 00:38:31;;;;;;;26.38;20.73;;;22.20;99.90;;;;;;4932944;29;20230;-63
2022/08/26 00:40:56;;;;;;;29.00;21.50;;;22.20;99.90;;;;;;4933542;29;20486;-63
2022/08/26 00:43:24;;;;;;;27.23;20.10;;;22.20;99.90;;;;;;4934560;29;20054;-63
2022/08/26 00:46:30;;;;;;;25.60;20.00;;;22.20;99.90;;;;;;4933026;29;20055;-64
2022/08/26 00:49:06;;;;;;;23.95;17.40;;;22.20;99.90;;;;;;4897453;29;20055;-63
2022/08/26 00:51:36;;;;;;;23.80;19.35;;;22.10;99.90;;;;;;4915334;29;20706;-63
2022/08/26 00:54:08;;;;;;;22.42;18.83;;;22.10;99.90;;;;;;4928968;29;20442;-64
2022/08/26 00:56:42;;;;;;;30.00;19.42;;;22.10;99.90;;;;;;4937947;29;20070;-63
2022/08/26 00:59:11;;;;;;;26.73;18.90;;;22.10;99.90;;;;;;4937043;29;20055;-65
2022/08/26 01:01:38;;;;;;;27.00;18.67;;;22.10;99.90;;;;;;4937733;29;20398;-63
2022/08/26 01:04:04;;;;;;;29.20;20.48;;;22.10;99.90;;;;;;4938089;29;20047;-64
2022/08/26 01:06:30;;;;;;;24.25;18.55;;;22.10;99.90;;;;;;4936538;29;20087;-64
2022/08/26 01:08:56;;;;;;;26.23;19.35;;;22.00;99.90;;;;;;4921243;29;20047;-64
2022/08/26 01:11:23;;;;;;;31.52;20.92;;;22.00;99.90;;;;;;4920953;29;20478;-64
2022/08/26 01:13:56;;;;;;;29.27;20.25;;;22.00;99.90;;;;;;4936558;29;20051;-64
2022/08/26 01:16:23;;;;;;;30.00;20.45;;;21.90;99.90;;;;;;4936935;29;20059;-66
2022/08/26 01:18:53;;;;;;;31.23;20.70;;;21.90;99.90;;;;;;4936134;29;20052;-64
2022/08/26 01:21:26;;;;;;;31.55;21.20;;;21.90;99.90;;;;;;4936495;29;20449;-63
2022/08/26 01:23:52;;;;;;;32.50;21.02;;;21.90;99.90;;;;;;4936861;29;20445;-66
2022/08/26 01:26:23;;;;;;;32.80;20.60;;;21.90;99.90;;;;;;4937491;29;20087;-65
2022/08/26 01:28:52;;;;;;;29.52;20.67;;;21.90;99.90;;;;;;4936332;29;20059;-63
2022/08/26 01:31:22;;;;;;;36.55;21.08;;;22.00;99.90;;;;;;4937604;29;20051;-64
2022/08/26 01:34:04;;;;;;;30.20;20.77;;;21.90;99.90;;;;;;4937144;29;20048;-63
2022/08/26 01:36:30;;;;;;;28.17;20.92;;;21.90;99.90;;;;;;4936387;29;20047;-66
2022/08/26 01:38:56;;;;;;;35.03;22.00;;;21.90;99.90;;;;;;4935836;29;20111;-63
2022/08/26 01:41:23;;;;;;;33.47;20.30;;;21.90;99.90;;;;;;4937330;29;20047;-63
2022/08/26 01:43:53;;;;;;;32.05;20.95;;;21.80;99.90;;;;;;4936979;29;20055;-63
2022/08/26 01:46:21;;;;;;;29.73;20.15;;;21.70;99.90;;;;;;4936277;29;20055;-63
2022/08/26 01:48:49;;;;;;;34.67;20.92;;;21.70;99.90;;;;;;4935911;29;20134;-63
2022/08/26 01:51:17;;;;;;;34.75;22.30;;;21.70;99.90;;;;;;4936022;29;20050;-64
2022/08/26 01:53:43;;;;;;;33.85;22.15;;;21.70;99.90;;;;;;4936433;29;20549;-63
2022/08/26 01:56:11;;;;;;;29.77;21.95;;;21.60;99.90;;;;;;4936011;29;20130;-63
2022/08/26 01:58:50;;;;;;;33.28;21.58;;;21.60;99.90;;;;;;4936138;29;20498;-63
2022/08/26 02:01:17;;;;;;;36.53;22.40;;;21.60;99.90;;;;;;4936711;29;20082;-63
2022/08/26 02:04:00;;;;;;;33.30;21.45;;;21.60;99.90;;;;;;4935848;29;20054;-62
2022/08/26 02:06:26;;;;;;;34.17;21.33;;;21.60;99.90;;;;;;4920088;29;20055;-63
2022/08/26 02:08:55;;;;;;;30.52;21.02;;;21.60;99.90;;;;;;4936472;29;20466;-63
2022/08/26 02:11:21;;;;;;;33.97;21.20;;;21.60;99.90;;;;;;4920099;29;20191;-62
2022/08/26 02:13:55;;;;;;;31.08;21.60;;;21.50;99.90;;;;;;4936158;29;20498;-63
2022/08/26 02:16:25;;;;;;;33.30;20.30;;;21.50;99.90;;;;;;4935659;29;20580;-63
2022/08/26 02:18:52;;;;;;;35.50;21.42;;;21.50;99.90;;;;;;4935159;29;20054;-64
2022/08/26 02:21:18;;;;;;;31.15;20.23;;;21.50;99.90;;;;;;4936635;29;20051;-63
2022/08/26 02:23:44;;;;;;;36.65;21.90;;;21.50;99.90;;;;;;4919161;29;20054;-63
2022/08/26 02:26:16;;;;;;;31.88;20.08;;;21.40;99.90;;;;;;4919567;29;20044;-63
2022/08/26 02:29:05;;;;;;;41.63;21.45;;;21.40;99.90;;;;;;4936177;29;20047;-64
2022/08/26 02:31:31;;;;;;;35.33;20.58;;;21.40;99.90;;;;;;4936578;29;20143;-63
2022/08/26 02:34:26;;;;;;;29.25;20.67;;;21.50;99.90;;;;;;4935101;29;20383;-63
2022/08/26 02:36:51;;;;;;;;;;;21.50;99.90;;;;;;4936700;29;20062;-64
2022/08/26 02:39:17;;;;;;;34.60;21.58;;;21.50;99.90;;;;;;4936395;28;19923;-63
2022/08/26 02:41:44;;;;;;;34.15;20.15;;;21.50;99.90;;;;;;4935965;29;20398;-63
2022/08/26 02:44:10;;;;;;;35.28;20.60;;;21.40;99.90;;;;;;4936203;29;20044;-63
2022/08/26 02:46:36;;;;;;;32.55;20.92;;;21.40;99.90;;;;;;4935242;29;20051;-63
2022/08/26 02:49:03;;;;;;;38.63;21.27;;;21.40;99.90;;;;;;4934806;29;20067;-64
2022/08/26 02:51:29;;;;;;;35.40;19.52;;;21.30;99.90;;;;;;4936144;29;20060;-63
2022/08/26 02:53:55;;;;;;;33.53;20.10;;;21.30;99.90;;;;;;4934719;29;20375;-63
2022/08/26 02:56:22;;;;;;;33.05;19.33;;;21.30;99.90;;;;;;4935881;29;20138;-65
2022/08/26 02:58:48;;;;;;;36.33;19.27;;;21.30;99.90;;;;;;4933970;29;20118;-63
2022/08/26 03:01:48;;;;;;;35.00;20.48;;;21.30;99.90;;;;;;4936008;29;20371;-64
2022/08/26 03:04:14;;;;;;;31.83;19.25;;;21.30;99.90;;;;;;4927794;29;20083;-63
2022/08/26 03:06:40;;;;;;;34.35;20.33;;;21.40;99.90;;;;;;4903507;29;20091;-64
2022/08/26 03:09:06;;;;;;;31.33;20.33;;;21.40;99.90;;;;;;4934325;29;20525;-63
2022/08/26 03:11:32;;;;;;;35.65;19.98;;;21.40;99.90;;;;;;4919008;29;20453;-64
2022/08/26 03:13:59;;;;;;;33.53;19.17;;;21.40;99.90;;;;;;4935256;29;20087;-63
2022/08/26 03:16:25;;;;;;;32.55;19.20;;;21.40;99.90;;;;;;4935621;29;20513;-63
2022/08/26 03:18:51;;;;;;;29.33;18.23;;;21.30;99.90;;;;;;4933319;29;20082;-63
2022/08/26 03:21:17;;;;;;;30.48;18.13;;;21.40;99.90;;;;;;4935530;29;20389;-63
2022/08/26 03:23:44;;;;;;;32.70;18.23;;;21.40;99.90;;;;;;4918597;29;20052;-66
2022/08/26 03:26:13;;;;;;;28.92;17.25;;;21.40;99.90;;;;;;4934591;29;20090;-63
2022/08/26 03:31:24;;;;;;;30.52;17.65;;;21.40;99.90;;;;;;4935480;29;20058;-64
2022/08/26 03:33:49;;;;;;;30.85;17.65;;;21.40;99.90;;;;;;4935186;29;20186;-63
2022/08/26 03:36:15;;;;;;;32.85;18.17;;;21.40;99.90;;;;;;4934299;29;20501;-63
2022/08/26 03:38:41;;;;;;;28.90;17.55;;;21.30;99.90;;;;;;4935301;29;20134;-61
2022/08/26 03:41:08;;;;;;;28.17;16.83;;;21.30;99.90;;;;;;4918231;29;20047;-64
2022/08/26 03:43:33;;;;;;;27.83;17.52;;;21.30;99.90;;;;;;4935189;29;20048;-62
2022/08/26 03:46:07;;;;;;;28.00;15.48;;;21.30;99.90;;;;;;4933910;29;20520;-62
2022/08/26 03:48:33;;;;;;;24.70;15.85;;;21.30;99.90;;;;;;4935225;29;20044;-62
2022/08/26 03:51:00;;;;;;;27.00;15.68;;;21.20;99.90;;;;;;4934742;29;20048;-61
2022/08/26 03:53:26;;;;;;;32.03;15.07;;;21.20;99.90;;;;;;4934776;29;20537;-62
2022/08/26 03:55:51;;;;;;;24.48;14.75;;;21.20;99.90;;;;;;4933554;29;20055;-62
2022/08/26 03:58:17;;;;;;;25.00;15.00;;;21.20;99.90;;;;;;4933497;29;20044;-62
2022/08/26 04:00:43;;;;;;;23.92;14.32;;;21.20;99.90;;;;;;4933848;29;20056;-63
2022/08/26 04:03:10;;;;;;;25.92;14.85;;;21.10;99.90;;;;;;4917841;29;20048;-61
2022/08/26 04:05:36;;;;;;;22.73;13.80;;;21.10;99.90;;;;;;4933791;29;20280;-61
2022/08/26 04:08:04;;;;;;;28.02;14.45;;;21.10;99.90;;;;;;4934603;29;20058;-62
2022/08/26 04:10:30;;;;;;;19.23;13.10;;;21.10;99.90;;;;;;4933754;29;20199;-62
2022/08/26 04:12:58;;;;;;;31.85;14.07;;;21.00;99.90;;;;;;4934485;29;20134;-63
2022/08/26 04:15:24;;;;;;;21.20;12.68;;;21.00;99.90;;;;;;4934574;29;20134;-62
2022/08/26 04:17:49;;;;;;;21.00;13.13;;;21.00;99.90;;;;;;4933279;29;20151;-66
2022/08/26 04:20:17;;;;;;;18.08;11.98;;;21.00;99.90;;;;;;4933449;29;20449;-63
2022/08/26 04:22:44;;;;;;;24.48;13.20;;;21.00;99.90;;;;;;4933515;29;20044;-62
2022/08/26 04:25:10;;;;;;;20.63;12.60;;;21.00;99.90;;;;;;4935464;29;20718;-63
2022/08/26 04:27:36;;;;;;;22.38;12.85;;;21.00;99.90;;;;;;4939848;29;20151;-62
2022/08/26 04:30:03;;;;;;;21.67;12.63;;;21.00;99.90;;;;;;4939384;29;20063;-63
2022/08/26 04:32:28;;;;;;;24.55;14.10;;;21.00;99.90;;;;;;4940001;29;20055;-62
2022/08/26 04:34:55;;;;;;;23.52;11.85;;;21.10;99.90;;;;;;4939818;29;20044;-62
2022/08/26 04:37:20;;;;;;;27.88;11.95;;;21.00;99.90;;;;;;4940900;29;20145;-62
2022/08/26 04:39:50;;;;;;;21.85;11.77;;;21.00;99.90;;;;;;4939956;29;20464;-63
2022/08/26 04:42:16;;;;;;;27.15;13.93;;;21.00;99.90;;;;;;4940477;29;20099;-62
2022/08/26 04:44:42;;;;;;;22.73;14.82;;;21.00;99.90;;;;;;4940772;29;20443;-62
2022/08/26 04:47:08;;;;;;;25.08;16.23;;;21.00;99.90;;;;;;4923542;29;20126;-63
2022/08/26 04:49:33;;;;;;;28.33;17.17;;;20.90;99.90;;;;;;4939470;29;20052;-62
2022/08/26 04:51:59;;;;;;;28.50;16.75;;;20.90;99.90;;;;;;4939282;29;20051;-63
2022/08/26 04:54:25;;;;;;;28.42;17.00;;;20.90;99.90;;;;;;4940582;29;20047;-62
2022/08/26 04:56:51;;;;;;;28.20;16.08;;;20.90;99.90;;;;;;4939362;29;20135;-62
2022/08/26 04:59:17;;;;;;;28.63;16.25;;;20.80;99.90;;;;;;4940203;29;20085;-63
2022/08/26 05:01:50;;;;;;;26.80;15.25;;;20.90;99.90;;;;;;4923720;29;20118;-62
2022/08/26 05:04:17;;;;;;;27.20;14.88;;;20.90;99.90;;;;;;4940245;29;20043;-62
2022/08/26 05:06:43;;;;;;;30.42;14.75;;;20.90;99.90;;;;;;4940528;29;20078;-62
2022/08/26 05:09:08;;;;;;;23.05;14.25;;;20.90;99.90;;;;;;4940192;29;20490;-62
2022/08/26 05:11:34;;;;;;;22.80;13.25;;;20.90;99.90;;;;;;4940535;29;20048;-62
2022/08/26 05:14:00;;;;;;;29.48;14.13;;;20.80;99.90;;;;;;4939131;29;20402;-62
2022/08/26 05:16:26;;;;;;;27.20;13.15;;;20.80;99.90;;;;;;4939197;29;20256;-63
2022/08/26 05:18:53;;;;;;;28.00;14.13;;;20.80;99.90;;;;;;4939177;29;20500;-63
2022/08/26 05:21:22;;;;;;;30.52;15.23;;;20.80;99.90;;;;;;4940143;29;20114;-62
2022/08/26 05:23:53;;;;;;;25.38;13.80;;;20.80;99.90;;;;;;4940781;29;20048;-62
2022/08/26 05:26:20;;;;;;;24.73;13.85;;;20.80;99.90;;;;;;4940029;29;20051;-63
2022/08/26 05:28:45;;;;;;;25.27;14.02;;;20.80;99.90;;;;;;4940328;29;20138;-63
2022/08/26 05:31:20;;;;;;;26.02;13.18;;;20.80;99.90;;;;;;4940095;29;20091;-63
2022/08/26 05:33:46;;;;;;;30.63;13.88;;;20.90;99.90;;;;;;4923197;29;20059;-63
2022/08/26 05:36:16;;;;;;;27.10;14.02;;;20.90;99.90;;;;;;4922653;29;20067;-62
2022/08/26 05:38:43;;;;;;;26.85;12.25;;;20.80;99.90;;;;;;4937524;29;20433;-62
2022/08/26 05:41:19;;;;;;;25.27;13.18;;;20.90;99.90;;;;;;4936874;29;20052;-62
2022/08/26 05:43:45;;;;;;;22.98;12.57;;;20.90;99.90;;;;;;4937351;29;20051;-63
2022/08/26 05:46:11;;;;;;;22.60;11.20;;;20.90;99.90;;;;;;4936905;29;20134;-63
2022/08/26 05:48:37;;;;;;;29.80;11.90;;;21.00;99.90;;;;;;4937279;29;20118;-63
2022/08/26 05:51:07;;;;;;;22.13;10.55;;;21.00;99.90;;;;;;4937770;29;20051;-64
2022/08/26 05:53:34;;;;;;;21.58;10.85;;;21.10;99.90;;;;;;4919367;29;20055;-60
2022/08/26 05:56:01;;;;;;;21.95;11.23;;;21.00;99.90;;;;;;4936157;29;20051;-60
2022/08/26 05:58:27;;;;;;;20.00;10.70;;;21.00;99.90;;;;;;4936721;29;20103;-61
2022/08/26 06:01:04;;;;;;;19.13;9.90;;;21.10;99.90;;;;;;4937176;29;20114;-60
2022/08/26 06:03:32;;;;;;;22.63;11.05;;;21.10;99.90;;;;;;4937133;29;20055;-60
2022/08/26 06:06:01;;;;;;;19.60;10.32;;;21.10;99.90;;;;;;4936937;29;20063;-60
2022/08/26 06:08:26;;;;;;;19.17;10.25;;;21.20;99.90;;;;;;4935224;29;20086;-62
2022/08/26 06:11:00;;;;;;;22.67;10.18;;;21.20;99.90;;;;;;4935720;29;20071;-60
2022/08/26 06:13:27;;;;;;;22.98;9.93;;;21.20;99.90;;;;;;4919916;29;20397;-61
2022/08/26 06:15:54;;;;;;;25.65;9.35;;;21.20;99.90;;;;;;4936859;29;20047;-61
2022/08/26 06:18:29;;;;;;;21.63;9.20;;;21.20;99.90;;;;;;4934944;29;20401;-61
2022/08/26 06:20:55;;;;;;;20.48;9.57;;;21.20;99.90;;;;;;4935631;29;20107;-61
2022/08/26 06:26:05;;;;;;;;;;;21.30;99.90;;;;;;4936805;29;20083;-62
2022/08/26 06:28:31;;;;;;;17.92;8.85;;;21.30;99.90;;;;;;4936658;29;20407;-61
2022/08/26 06:30:57;;;;;;;22.50;10.13;;;21.30;99.90;;;;;;4936703;29;20371;-60
2022/08/26 06:33:24;;;;;;;21.20;9.70;;;21.30;99.90;;;;;;4935149;29;20052;-61
2022/08/26 06:35:51;;;;;;;23.83;9.68;;;21.30;99.90;;;;;;4936064;29;20505;-60
2022/08/26 06:38:17;;;;;;;19.02;8.75;;;21.30;99.90;;;;;;4934907;29;20052;-60
2022/08/26 06:40:47;;;;;;;21.50;9.70;;;21.40;99.90;;;;;;4936330;29;20070;-61
2022/08/26 06:43:14;;;;;;;20.85;9.95;;;21.40;99.90;;;;;;4935983;29;20127;-61
2022/08/26 06:45:40;;;;;;;27.05;10.02;;;21.40;99.90;;;;;;4936145;29;20096;-60
2022/08/26 06:48:06;;;;;;;20.80;10.32;;;21.40;99.90;;;;;;4935689;29;20073;-61
2022/08/26 06:50:33;;;;;;;19.88;10.40;;;21.30;99.90;;;;;;4936146;29;20085;-62
2022/08/26 06:52:59;;;;;;;21.25;9.82;;;21.30;99.90;;;;;;4936007;29;20044;-61
2022/08/26 06:55:26;;;;;;;20.67;9.30;;;21.30;99.90;;;;;;4935959;29;20106;-61
2022/08/26 06:57:52;;;;;;;23.23;9.23;;;21.30;99.90;;;;;;4935661;29;20048;-62
2022/08/26 07:00:19;;;;;;;19.33;8.80;;;21.30;99.90;;;;;;4935419;29;20066;-60
2022/08/26 07:02:45;;;;;;;19.33;9.50;;;21.40;99.90;;;;;;4935935;29;20063;-61
2022/08/26 07:05:11;;;;;;;19.40;8.90;;;21.40;99.90;;;;;;4918692;29;20114;-59
2022/08/26 07:07:37;;;;;;;17.48;8.77;;;21.40;99.90;;;;;;4918450;29;20292;-59
2022/08/26 07:10:04;;;;;;;18.63;9.48;;;21.30;99.90;;;;;;4935447;29;20056;-59
2022/08/26 07:12:30;;;;;;;18.52;8.95;;;21.30;99.90;;;;;;4935423;29;20146;-59
2022/08/26 07:14:58;;;;;;;18.60;8.35;;;21.40;99.90;;;;;;4935608;29;20084;-59
2022/08/26 07:17:24;;;;;;;16.15;8.88;;;21.30;99.90;;;;;;4934197;29;20047;-60
2022/08/26 07:19:49;;;;;;;19.33;8.23;;;21.30;99.90;;;;;;4934599;29;20150;-59
2022/08/26 07:22:15;;;;;;;17.15;8.48;;;21.30;99.90;;;;;;4933940;29;20058;-60
2022/08/26 07:24:41;;;;;;;18.45;7.78;;;21.30;99.90;;;;;;4934583;29;20106;-61
2022/08/26 07:27:10;;;;;;;13.68;6.40;;;21.20;99.90;;;;;;4934516;29;20051;-60
2022/08/26 07:29:38;;;;;;;16.95;7.07;;;21.30;99.90;;;;;;4934215;29;20102;-61
2022/08/26 07:32:05;;;;;;;14.57;6.18;;;21.30;99.90;;;;;;4935365;29;20051;-61
2022/08/26 07:34:31;;;;;;;16.63;6.60;;;21.30;99.90;;;;;;4934152;29;20048;-62
2022/08/26 07:36:57;;;;;;;14.43;7.03;;;21.30;99.90;;;;;;4935315;29;20106;-61
2022/08/26 07:39:24;;;;;;;17.88;7.25;;;21.40;99.90;;;;;;4933932;29;20103;-60
2022/08/26 07:41:50;;;;;;;13.93;7.07;;;21.40;99.90;;;;;;4935181;29;20107;-61
2022/08/26 07:44:16;;;;;;;11.55;6.10;;;21.30;99.90;;;;;;4933703;29;20080;-61
2022/08/26 07:46:43;;;;;;;16.05;6.88;;;21.30;99.90;;;;;;4935208;29;20054;-60
2022/08/26 07:49:08;;;;;;;14.38;6.05;;;21.40;99.90;;;;;;4935043;29;20114;-60
2022/08/26 07:51:35;;;;;;;14.50;6.72;;;21.50;99.90;;;;;;4934681;29;20104;-61
2022/08/26 07:54:01;;;;;;;17.20;6.28;;;21.50;99.90;;;;;;4934928;29;20058;-61
2022/08/26 07:56:28;;;;;;;12.68;4.90;;;21.50;99.90;;;;;;4934588;29;20043;-60
2022/08/26 07:58:54;;;;;;;15.27;4.88;;;21.50;99.90;;;;;;4934623;29;20134;-60
2022/08/26 08:01:22;;;;;;;11.20;4.95;;;21.60;99.90;;;;;;4933455;29;20059;-61
2022/08/26 08:03:52;;;;;;;10.98;4.57;;;21.60;99.90;;;;;;4935013;29;20102;-61
2022/08/26 08:06:23;;;;;;;12.90;3.88;;;21.70;99.90;;;;;;4934485;29;20054;-63
2022/08/26 08:08:50;;;;;;;11.60;4.13;;;21.60;99.90;;;;;;4935005;29;20069;-60
2022/08/26 08:11:16;;;;;;;10.38;3.53;;;21.60;99.90;;;;;;4934851;29;20141;-60
2022/08/26 08:13:42;;;;;;;8.75;3.25;;;21.60;99.90;;;;;;4934711;29;20050;-60
2022/08/26 08:16:08;;;;;;;12.20;3.40;;;21.60;99.90;;;;;;4917793;29;20047;-60
2022/08/26 08:18:34;;;;;;;9.10;2.60;;;21.60;99.90;;;;;;4933290;29;20470;-61
2022/08/26 08:21:02;;;;;;;14.93;3.83;;;21.50;99.90;;;;;;4933752;29;20048;-60
2022/08/26 08:23:30;;;;;;;14.35;3.05;;;21.50;99.90;;;;;;4934456;29;20127;-62
2022/08/26 08:26:00;;;;;;;11.32;2.92;;;21.50;99.90;;;;;;4933702;29;20059;-61
2022/08/26 08:28:26;;;;;;;13.02;3.50;;;21.60;99.90;;;;;;4933371;29;20320;-61
2022/08/26 08:30:52;;;;;;;10.10;2.90;;;21.70;99.90;;;;;;4933501;29;20106;-61
2022/08/26 08:33:18;;;;;;;12.63;3.08;;;21.70;99.90;;;;;;4934608;29;20077;-60
2022/08/26 08:35:44;;;;;;;11.05;2.83;;;21.80;99.90;;;;;;4933204;29;20048;-60
2022/08/26 08:38:10;;;;;;;12.10;3.05;;;21.80;99.90;;;;;;4934375;29;20052;-60
2022/08/26 08:40:41;;;;;;;7.55;2.78;;;21.80;99.90;;;;;;4934163;29;20135;-59
2022/08/26 08:43:12;;;;;;;10.50;3.13;;;21.90;99.90;;;;;;4934583;29;20063;-61
2022/08/26 08:45:50;;;;;;;11.65;3.22;;;21.90;99.90;;;;;;4934154;29;20390;-60
2022/08/26 08:48:26;;;;;;;13.02;3.15;;;21.90;99.90;;;;;;4933226;29;20397;-59
2022/08/26 08:50:55;;;;;;;11.18;3.08;;;21.90;99.90;;;;;;4934472;29;20058;-59
2022/08/26 08:53:33;;;;;;;13.30;3.20;;;21.80;99.90;;;;;;4934485;29;20062;-59
2022/08/26 08:56:36;;;;;;;13.02;3.33;;;21.80;99.90;;;;;;4933492;29;20152;-60
2022/08/26 08:59:23;;;;;;;10.50;2.78;;;21.80;99.90;;;;;;4934044;29;20064;-60
2022/08/26 09:02:16;;;;;;;10.93;3.00;;;21.80;99.90;;;;;;4933204;29;20406;-61
2022/08/26 09:05:10;;;;;;;12.35;3.58;;;21.80;99.90;;;;;;4934076;29;20052;-60
2022/08/26 09:07:38;;;;;;;12.38;2.90;;;21.80;99.90;;;;;;4933099;29;20055;-61
2022/08/26 09:10:21;;;;;;;11.18;3.15;;;21.70;99.90;;;;;;4934217;29;20184;-60
2022/08/26 09:12:49;;;;;;;10.80;3.72;;;21.60;99.90;;;;;;4937008;29;20139;-60
2022/08/26 09:15:15;;;;;;;12.43;3.05;;;21.60;99.90;;;;;;4936720;29;20079;-60
2022/08/26 09:17:46;;;;;;;9.98;2.85;;;21.60;99.90;;;;;;4937361;29;20145;-60
2022/08/26 09:20:33;;;;;;;10.88;3.30;;;21.40;99.90;;;;;;4937769;29;20126;-60
2022/08/26 09:23:00;;;;;;;9.73;2.45;;;21.40;99.90;;;;;;4936262;29;20048;-60
2022/08/26 09:25:26;;;;;;;12.75;3.47;;;21.20;99.90;;;;;;4936462;29;20386;-61
2022/08/26 09:27:53;;;;;;;12.13;2.80;;;21.30;99.90;;;;;;4952520;29;20080;-60
2022/08/26 09:30:31;;;;;;;13.50;3.08;;;21.30;99.90;;;;;;4937608;29;20052;-60
2022/08/26 09:33:09;;;;;;;10.63;2.90;;;21.30;99.90;;;;;;4937602;29;20295;-60
2022/08/26 09:35:38;;;;;;;15.60;2.88;;;21.30;99.90;;;;;;4937172;29;20111;-60
2022/08/26 09:38:24;;;;;;;10.50;3.00;;;21.20;99.90;;;;;;4937415;29;20390;-60
2022/08/26 09:40:58;;;;;;;11.80;3.10;;;21.20;99.90;;;;;;4937134;29;20055;-60
2022/08/26 09:43:27;;;;;;;9.23;3.42;;;21.30;99.90;;;;;;4920561;29;20051;-60
2022/08/26 09:46:23;;;;;;;10.50;2.92;;;21.40;99.90;;;;;;4937407;29;20389;-60
2022/08/26 09:48:49;;;;;;;9.45;3.13;;;21.40;99.90;;;;;;4936062;29;20059;-59
2022/08/26 09:51:25;;;;;;;12.65;3.10;;;21.60;99.90;;;;;;4937073;29;20052;-61
2022/08/26 09:53:59;;;;;;;9.48;2.92;;;21.60;99.90;;;;;;4951541;29;20058;-60
2022/08/26 09:56:31;;;;;;;10.35;2.78;;;21.60;99.90;;;;;;4935858;29;20048;-60
2022/08/26 09:58:57;;;;;;;9.73;2.83;;;21.70;99.90;;;;;;4936693;29;20406;-60
2022/08/26 10:01:41;;;;;;;13.57;3.53;;;21.90;99.90;;;;;;4935749;29;20048;-60
2022/08/26 10:04:09;;;;;;;11.27;2.63;;;21.90;99.90;;;;;;4937000;29;20521;-60
2022/08/26 10:06:42;;;;;;;13.25;3.40;;;21.90;99.90;;;;;;4935437;29;20482;-61
2022/08/26 10:09:12;;;;;;;6.38;2.28;;;21.90;99.90;;;;;;4936894;29;20039;-60
2022/08/26 10:11:50;;;;;;;13.07;3.30;;;21.80;99.90;;;;;;4936590;29;20138;-60
2022/08/26 10:14:34;;;;;;;12.98;3.33;;;21.70;99.90;;;;;;4936989;29;20047;-60
2022/08/26 10:17:28;;;;;;;11.73;2.67;;;21.70;99.90;;;;;;4936848;29;20055;-60
2022/08/26 10:20:12;;;;;;;;;;;21.70;99.90;;;;;;4935739;29;20235;-60
2022/08/26 10:22:44;;;;;;;7.22;2.40;;;21.60;99.90;;;;;;4935627;29;20048;-60
2022/08/26 10:25:16;;;;;;;7.25;2.60;;;21.60;99.90;;;;;;4936661;29;20505;-60
2022/08/26 10:27:56;;;;;;;8.50;2.65;;;21.60;99.90;;;;;;4936353;29;20050;-61
2022/08/26 10:30:28;;;;;;;11.40;2.90;;;21.60;99.90;;;;;;4935187;29;20520;-60
2022/08/26 10:33:03;;;;;;;11.07;2.70;;;21.50;99.90;;;;;;4919476;29;20089;-60
2022/08/26 10:35:31;;;;;;;7.50;2.80;;;21.50;99.90;;;;;;4936470;29;20087;-60
2022/08/26 10:38:02;;;;;;;11.00;2.83;;;21.50;99.90;;;;;;4935133;29;20051;-60
2022/08/26 10:40:51;;;;;;;8.82;3.10;;;21.50;99.90;;;;;;4919601;29;20445;-60
2022/08/26 10:43:20;;;;;;;7.93;2.70;;;21.50;99.90;;;;;;4935740;29;20115;-60
2022/08/26 10:45:52;;;;;;;8.10;2.80;;;21.50;99.90;;;;;;4935918;29;20043;-60
2022/08/26 10:48:41;;;;;;;10.27;2.72;;;21.50;99.90;;;;;;4936373;29;20051;-60
2022/08/26 10:51:11;;;;;;;9.13;2.67;;;21.70;99.90;;;;;;4936198;29;20047;-60
2022/08/26 10:53:40;;;;;;;6.32;2.63;;;21.80;99.90;;;;;;4935863;29;20063;-64
2022/08/26 10:56:38;;;;;;;10.88;3.03;;;21.90;99.90;;;;;;4936059;29;20056;-60
2022/08/26 10:59:29;;;;;;;11.93;2.80;;;21.90;99.90;;;;;;4935686;29;20095;-60
2022/08/26 11:02:13;;;;;;;11.13;3.05;;;21.90;99.90;;;;;;4934791;29;20151;-61
2022/08/26 11:04:48;;;;;;;10.77;3.13;;;21.90;99.90;;;;;;4935792;29;20102;-61
2022/08/26 11:07:35;;;;;;;8.65;3.05;;;21.80;99.90;;;;;;4935865;29;20134;-61
2022/08/26 11:10:14;;;;;;;11.00;3.08;;;21.70;99.90;;;;;;4934410;29;20051;-60
2022/08/26 11:12:40;;;;;;;9.30;2.92;;;21.60;99.90;;;;;;4935604;29;20078;-61
2022/08/26 11:15:32;;;;;;;13.85;3.33;;;21.60;99.90;;;;;;4935663;29;20082;-60
2022/08/26 11:18:03;;;;;;;11.15;3.20;;;21.60;99.90;;;;;;4935152;29;20371;-65
2022/08/26 11:20:34;;;;;;;10.43;3.10;;;21.70;99.90;;;;;;4935555;29;20051;-62
2022/08/26 11:23:26;;;;;;;10.88;2.65;;;21.80;99.90;;;;;;4950064;29;20047;-61
2022/08/26 11:25:55;;;;;;;17.10;3.40;;;21.80;99.90;;;;;;4934141;29;20382;-60
2022/08/26 11:28:39;;;;;;;10.15;3.28;;;21.90;99.90;;;;;;4950228;29;20048;-60
2022/08/26 11:31:11;;;;;;;11.75;3.00;;;22.00;99.90;;;;;;4934213;29;20143;-61
2022/08/26 11:33:47;;;;;;;10.95;3.15;;;22.10;99.90;;;;;;4935478;29;20414;-61
2022/08/26 11:36:44;;;;;;;12.02;2.90;;;22.10;99.90;;;;;;4934439;29;20071;-60
2022/08/26 11:39:34;;;;;;;8.23;2.40;;;22.10;99.90;;;;;;4935254;29;20046;-61
2022/08/26 11:42:38;;;;;;;8.75;2.80;;;22.00;99.90;;;;;;4934950;29;20410;-60
2022/08/26 11:45:13;;;;;;;15.75;3.17;;;22.00;99.90;;;;;;4934066;29;20091;-60
2022/08/26 11:47:38;;;;;;;14.80;3.30;;;21.90;99.90;;;;;;4934222;29;20445;-60
2022/08/26 11:50:14;;;;;;;12.57;3.30;;;21.90;99.90;;;;;;4933531;29;20044;-60
2022/08/26 11:52:40;;;;;;;10.18;3.10;;;21.80;99.90;;;;;;4935101;29;20087;-62
2022/08/26 11:55:10;;;;;;;11.23;3.08;;;21.60;99.90;;;;;;4934703;29;20461;-60
2022/08/26 11:57:50;;;;;;;11.77;3.00;;;21.40;99.90;;;;;;4933893;29;20149;-60
2022/08/26 12:00:22;;;;;;;7.80;3.00;;;21.30;99.90;;;;;;4933330;29;20183;-60
2022/08/26 12:02:49;;;;;;;7.22;2.70;;;21.20;99.90;;;;;;4934632;29;20050;-61
2022/08/26 12:05:29;;;;;;;11.10;3.10;;;21.20;99.90;;;;;;4933867;29;20508;-60
2022/08/26 12:07:55;;;;;;;8.88;2.78;;;21.20;99.90;;;;;;4934634;29;20063;-60
2022/08/26 12:10:32;;;;;;;12.18;3.20;;;21.10;99.90;;;;;;4933830;29;20051;-61
2022/08/26 12:13:00;;;;;;;15.82;3.60;;;21.00;99.90;;;;;;4934848;29;20062;-60
2022/08/26 12:15:28;;;;;;;11.77;3.10;;;21.00;99.90;;;;;;4934390;29;20497;-60
2022/08/26 12:17:54;;;;;;;11.07;3.30;;;21.00;99.90;;;;;;4933134;29;20074;-60
2022/08/26 12:20:47;;;;;;;13.23;3.95;;;21.00;99.90;;;;;;4934452;29;20430;-61
2022/08/26 12:23:23;;;;;;;13.93;3.40;;;20.90;99.90;;;;;;4933533;29;20401;-60
2022/08/26 12:25:51;;;;;;;10.93;3.35;;;20.90;99.90;;;;;;4934412;29;20416;-60
2022/08/26 12:28:18;;;;;;;10.27;2.75;;;21.00;99.90;;;;;;4934699;29;20449;-60
2022/08/26 12:31:05;;;;;;;9.63;2.60;;;21.00;99.90;;;;;;4934315;29;20560;-60
2022/08/26 12:33:34;;;;;;;9.95;2.53;;;20.90;99.90;;;;;;4917767;29;20157;-60
2022/08/26 12:36:01;;;;;;;11.57;2.55;;;20.80;99.90;;;;;;4917849;29;20064;-59
2022/08/26 12:38:27;;;;;;;9.15;2.58;;;20.80;99.90;;;;;;4934180;29;20498;-60
2022/08/26 12:40:54;;;;;;;8.52;2.67;;;20.80;99.90;;;;;;4917358;29;20107;-60
2022/08/26 12:43:41;;;;;;;10.50;2.42;;;20.90;99.90;;;;;;4934571;29;20047;-61
2022/08/26 12:46:15;;;;;;;10.02;2.33;;;20.90;99.90;;;;;;4934864;29;20078;-60
2022/08/26 12:48:46;;;;;;;8.00;2.47;;;21.00;99.90;;;;;;4937149;29;20051;-60
2022/08/26 12:51:23;;;;;;;6.30;2.45;;;21.00;99.90;;;;;;4938063;29;20055;-60
2022/08/26 12:53:48;;;;;;;8.18;2.47;;;21.00;99.90;;;;;;4938378;29;20397;-61
2022/08/26 12:56:29;;;;;;;8.40;2.33;;;21.00;99.90;;;;;;4936364;29;20048;-60